createdAt,value
2023-02-11T00:04:25.079Z,-2.96
2023-02-11T00:09:27.726Z,-3.00
2023-02-11T00:14:30.944Z,-3.04
2023-02-11T00:19:33.346Z,-3.08
2023-02-11T00:24:35.946Z,-3.11
2023-02-11T00:29:38.314Z,-2.97
2023-02-11T00:34:40.743Z,-3.02
2023-02-11T00:39:43.200Z,-2.93
2023-02-11T00:44:45.788Z,-2.99
2023-02-11T00:49:48.082Z,-3.00
2023-02-11T00:54:50.465Z,-3.01
2023-02-11T00:59:52.857Z,-2.96
2023-02-11T01:04:55.386Z,-2.89
2023-02-11T01:09:57.793Z,-2.99
2023-02-11T01:15:00.329Z,-3.00
2023-02-11T01:20:02.806Z,-3.10
2023-02-11T01:25:05.176Z,-3.10
2023-02-11T01:30:07.600Z,-3.05
2023-02-11T01:35:10.115Z,-3.13
2023-02-11T01:40:12.462Z,-3.16
2023-02-11T01:45:14.805Z,-3.15
2023-02-11T01:50:17.293Z,-3.13
2023-02-11T01:55:42.616Z,-3.17
2023-02-11T02:00:44.916Z,-3.20
2023-02-11T02:05:47.235Z,-3.26
2023-02-11T02:10:49.753Z,-3.36
2023-02-11T02:15:52.441Z,-3.36
2023-02-11T02:20:55.235Z,-3.36
2023-02-11T02:25:57.950Z,-3.40
2023-02-11T02:31:00.633Z,-3.40
2023-02-11T02:36:03.101Z,-3.41
2023-02-11T02:41:05.591Z,-3.41
2023-02-11T02:46:07.890Z,-3.36
2023-02-11T02:51:10.313Z,-3.35
2023-02-11T02:56:12.752Z,-3.26
2023-02-11T03:01:15.238Z,-3.24
2023-02-11T03:06:17.660Z,-3.11
2023-02-11T03:11:20.299Z,-3.09
2023-02-11T03:16:22.749Z,-3.13
2023-02-11T03:21:25.040Z,-3.12
2023-02-11T03:26:27.591Z,-3.04
2023-02-11T03:31:29.997Z,-3.10
2023-02-11T03:36:32.605Z,-3.08
2023-02-11T03:41:34.978Z,-3.10
2023-02-11T03:46:37.324Z,-3.21
2023-02-11T03:51:39.671Z,-3.31
2023-02-11T03:56:42.055Z,-3.32
2023-02-11T04:01:44.592Z,-3.39
2023-02-11T04:06:47.116Z,-3.27
2023-02-11T04:11:49.447Z,-3.22
2023-02-11T04:16:52.014Z,-3.15
2023-02-11T04:21:54.411Z,-3.06
2023-02-11T04:26:56.700Z,-3.05
2023-02-11T04:31:59.049Z,-2.94
2023-02-11T04:37:02.270Z,-2.92
2023-02-11T04:42:04.645Z,-2.88
2023-02-11T04:47:07.062Z,-2.86
2023-02-11T04:52:09.378Z,-2.74
2023-02-11T04:57:11.711Z,-2.79
2023-02-11T05:02:14.024Z,-2.80
2023-02-11T05:07:16.541Z,-2.76
2023-02-11T05:12:18.868Z,-2.65
2023-02-11T05:17:21.248Z,-2.43
2023-02-11T05:22:23.558Z,-2.31
2023-02-11T05:27:25.942Z,-2.19
2023-02-11T05:32:28.259Z,-1.97
2023-02-11T05:37:30.717Z,-1.90
2023-02-11T05:42:33.187Z,-1.82
2023-02-11T05:47:35.652Z,-1.74
2023-02-11T05:52:37.981Z,-1.63
2023-02-11T05:57:40.394Z,-1.61
2023-02-11T06:02:42.776Z,-1.52
2023-02-11T06:07:45.209Z,-1.44
2023-02-11T06:12:47.511Z,-1.37
2023-02-11T06:17:49.867Z,-1.32
2023-02-11T06:22:52.466Z,-1.22
2023-02-11T06:27:55.113Z,-1.19
2023-02-11T06:32:57.641Z,-1.13
2023-02-11T06:38:00.039Z,-1.22
2023-02-11T06:43:02.616Z,-1.19
2023-02-11T06:48:04.980Z,-1.03
2023-02-11T06:53:07.389Z,-1.02
2023-02-11T06:58:09.988Z,-0.82
2023-02-11T07:03:12.279Z,-0.70
2023-02-11T07:08:14.685Z,-0.51
2023-02-11T07:13:17.385Z,-0.33
2023-02-11T07:18:19.754Z,-0.20
2023-02-11T07:23:22.171Z,-0.19
2023-02-11T07:28:24.758Z,-0.02
2023-02-11T07:33:27.232Z,0.07
2023-02-11T07:38:29.634Z,0.09
2023-02-11T07:43:32.022Z,0.22
2023-02-11T07:48:34.424Z,0.41
2023-02-11T07:53:36.752Z,0.54
2023-02-11T07:58:39.279Z,0.79
2023-02-11T08:03:41.968Z,0.90
2023-02-11T08:08:44.243Z,1.22
2023-02-11T08:13:46.664Z,1.54
2023-02-11T08:18:48.909Z,1.88
2023-02-11T08:23:51.240Z,2.14
2023-02-11T08:28:53.598Z,2.25
2023-02-11T08:33:58.033Z,2.34
2023-02-11T08:39:17.447Z,2.16
2023-02-11T08:44:20.830Z,2.40
2023-02-11T08:49:23.357Z,2.43
2023-02-11T08:54:25.721Z,2.64
2023-02-11T08:59:27.999Z,2.95
2023-02-11T09:04:30.358Z,3.38
2023-02-11T09:09:32.833Z,3.63
2023-02-11T09:14:35.139Z,3.72
2023-02-11T09:19:37.617Z,3.70
2023-02-11T09:24:40.035Z,3.99
2023-02-11T09:29:42.407Z,3.86
2023-02-11T09:34:44.851Z,4.06
2023-02-11T09:39:47.128Z,4.06
2023-02-11T09:44:49.431Z,3.71
2023-02-11T09:49:51.727Z,3.83
2023-02-11T09:54:54.072Z,3.91
2023-02-11T09:59:57.587Z,3.98
2023-02-11T10:04:59.892Z,4.51
2023-02-11T10:10:02.202Z,4.91
2023-02-11T10:15:04.491Z,5.11
2023-02-11T10:20:06.895Z,5.30
2023-02-11T10:25:09.282Z,5.21
2023-02-11T10:30:11.626Z,4.90
2023-02-11T10:35:15.202Z,4.87
2023-02-11T10:40:17.533Z,5.17
2023-02-11T10:45:20.015Z,4.82
2023-02-11T10:50:22.451Z,4.91
2023-02-11T10:55:24.817Z,5.36
2023-02-11T11:00:27.202Z,5.85
2023-02-11T11:05:29.669Z,6.22
2023-02-11T11:10:32.135Z,6.47
2023-02-11T11:15:34.603Z,6.43
2023-02-11T11:20:38.035Z,6.76
2023-02-11T11:25:40.570Z,6.55
2023-02-11T11:30:43.031Z,6.70
2023-02-11T11:35:45.458Z,6.30
2023-02-11T11:40:47.876Z,6.39
2023-02-11T11:45:50.466Z,6.53
2023-02-11T11:50:53.135Z,7.20
2023-02-11T11:55:58.606Z,7.28
2023-02-11T12:01:02.146Z,7.10
2023-02-11T12:06:04.524Z,6.63
2023-02-11T12:11:07.109Z,6.62
2023-02-11T12:16:10.088Z,6.96
2023-02-11T12:21:12.570Z,6.76
2023-02-11T12:26:14.938Z,6.35
2023-02-11T12:31:17.345Z,6.50
2023-02-11T12:36:20.704Z,6.97
2023-02-11T12:41:43.121Z,6.91
2023-02-11T12:46:45.553Z,6.92
2023-02-11T12:51:47.888Z,6.72
2023-02-11T12:56:50.299Z,6.39
2023-02-11T13:01:52.738Z,6.15
2023-02-11T13:06:55.316Z,5.77
2023-02-11T13:11:57.704Z,5.60
2023-02-11T13:17:00.426Z,5.40
2023-02-11T13:22:02.976Z,5.71
2023-02-11T13:27:05.506Z,6.14
2023-02-11T13:32:08.171Z,6.40
2023-02-11T13:37:10.632Z,6.64
2023-02-11T13:42:13.220Z,6.78
2023-02-11T13:47:16.672Z,6.89
2023-02-11T13:52:19.086Z,6.85
2023-02-11T13:57:21.441Z,6.86
2023-02-11T14:02:41.512Z,6.96
2023-02-11T14:08:01.407Z,6.93
2023-02-11T14:13:03.827Z,7.05
2023-02-11T14:18:06.128Z,7.05
2023-02-11T14:23:08.497Z,7.13
2023-02-11T14:28:10.984Z,7.11
2023-02-11T14:33:13.296Z,7.11
2023-02-11T14:38:15.638Z,7.12
2023-02-11T14:43:17.971Z,6.89
2023-02-11T14:48:20.294Z,6.66
2023-02-11T14:53:22.561Z,6.74
2023-02-11T14:58:24.941Z,6.89
2023-02-11T15:03:27.326Z,6.84
2023-02-11T15:08:30.034Z,6.47
2023-02-11T15:13:32.352Z,6.42
2023-02-11T15:18:34.609Z,6.37
2023-02-11T15:23:37.089Z,6.29
2023-02-11T15:28:39.447Z,6.08
2023-02-11T15:33:41.725Z,5.72
2023-02-11T15:38:44.248Z,5.47
2023-02-11T15:43:46.601Z,5.28
2023-02-11T15:48:48.911Z,5.24
2023-02-11T15:53:53.004Z,5.30
2023-02-11T15:58:55.366Z,5.37
2023-02-11T16:03:57.818Z,5.30
2023-02-11T16:09:00.171Z,5.37
2023-02-11T16:14:05.173Z,5.38
2023-02-11T16:19:09.244Z,5.24
2023-02-11T16:24:11.573Z,5.09
2023-02-11T16:29:13.878Z,4.96
2023-02-11T16:34:16.233Z,5.01
2023-02-11T16:39:18.535Z,4.95
2023-02-11T16:44:20.819Z,4.92
2023-02-11T16:49:23.158Z,4.80
2023-02-11T16:54:25.470Z,4.71
2023-02-11T16:59:27.758Z,4.58
2023-02-11T17:04:30.208Z,4.39
2023-02-11T17:09:32.654Z,4.39
2023-02-11T17:14:34.955Z,4.36
2023-02-11T17:19:37.223Z,4.39
2023-02-11T17:24:39.509Z,4.39
2023-02-11T17:29:41.972Z,4.34
2023-02-11T17:34:44.667Z,4.47
2023-02-11T17:39:47.056Z,4.30
2023-02-11T17:44:49.517Z,4.16
2023-02-11T17:49:51.887Z,4.18
2023-02-11T17:54:54.259Z,4.05
2023-02-11T17:59:56.757Z,4.12
2023-02-11T18:05:00.205Z,3.96
2023-02-11T18:10:02.631Z,3.95
2023-02-11T18:15:05.524Z,3.76
2023-02-11T18:20:08.008Z,3.68
2023-02-11T18:25:10.439Z,3.71
2023-02-11T18:30:12.762Z,3.61
2023-02-11T18:35:15.900Z,3.50
2023-02-11T18:40:18.240Z,3.42
2023-02-11T18:45:20.555Z,3.35
2023-02-11T18:50:23.018Z,3.35
2023-02-11T18:55:26.433Z,3.41
2023-02-11T19:00:28.857Z,3.50
2023-02-11T19:05:33.502Z,3.56
2023-02-11T19:10:36.000Z,3.64
2023-02-11T19:15:38.446Z,3.61
2023-02-11T19:20:40.865Z,3.66
2023-02-11T19:25:43.330Z,3.71
2023-02-11T19:30:45.878Z,3.68
2023-02-11T19:35:48.236Z,3.62
2023-02-11T19:40:50.624Z,3.63
2023-02-11T19:45:54.223Z,3.66
2023-02-11T19:50:56.904Z,3.66
2023-02-11T19:55:59.323Z,3.70
2023-02-11T20:01:02.112Z,3.83
2023-02-11T20:06:04.829Z,3.91
2023-02-11T20:11:07.619Z,3.93
2023-02-11T20:16:10.742Z,3.98
2023-02-11T20:21:13.130Z,3.94
2023-02-11T20:26:15.611Z,3.98
2023-02-11T20:31:18.075Z,4.01
2023-02-11T20:36:20.412Z,3.99
2023-02-11T20:41:22.716Z,4.11
2023-02-11T20:46:25.061Z,4.11
2023-02-11T20:51:27.398Z,4.12
2023-02-11T20:56:29.784Z,4.19
2023-02-11T21:01:32.243Z,4.22
2023-02-11T21:06:34.681Z,4.26
2023-02-11T21:11:37.168Z,4.26
2023-02-11T21:16:39.544Z,4.21
2023-02-11T21:21:41.919Z,4.21
2023-02-11T21:26:44.584Z,4.18
2023-02-11T21:31:47.125Z,4.21
2023-02-11T21:36:51.210Z,4.20
2023-02-11T21:41:55.785Z,4.12
2023-02-11T21:46:58.229Z,4.13
2023-02-11T21:52:00.838Z,4.15
2023-02-11T21:57:04.138Z,4.15
2023-02-11T22:02:06.551Z,4.12
2023-02-11T22:07:12.650Z,4.04
2023-02-11T22:12:15.115Z,4.05
2023-02-11T22:17:17.571Z,4.04
2023-02-11T22:22:19.995Z,4.08
2023-02-11T22:27:22.449Z,3.96
2023-02-11T22:32:24.861Z,4.01
2023-02-11T22:37:27.455Z,4.00
2023-02-11T22:42:30.051Z,3.97
2023-02-11T22:47:32.407Z,4.01
2023-02-11T22:52:34.827Z,4.04
2023-02-11T22:57:37.248Z,3.98
2023-02-11T23:02:39.660Z,3.90
2023-02-11T23:07:42.167Z,3.79
2023-02-11T23:12:44.667Z,3.78
2023-02-11T23:17:47.009Z,3.84
2023-02-11T23:22:49.369Z,3.81
2023-02-11T23:27:51.753Z,3.89
2023-02-11T23:32:54.072Z,3.88
2023-02-11T23:37:56.527Z,3.83
2023-02-11T23:42:59.051Z,3.84
2023-02-11T23:48:01.400Z,3.82
2023-02-11T23:53:03.794Z,3.69
2023-02-11T23:58:06.326Z,3.66
